Wetterdaten: Woche 19.01.26 - 25.01.26 (KW4)
Datum Zeit Temp. I. Temp. A. Feuchte I. Feuchte A. Luftdruck Regen Wind Richtung Sonnenschein Solar Taupunkt Windchill Windböen
19.01.2026 00:00 22,2 °C -3,4 °C 52 % 88 % 1024,0 hPa 0,0 l/m² 0,0 km/h (0 Bft) O-NO 0,00 h 0 W/m² -5,1 °C -3,4 °C 0,0 km/h (0 Bft)
19.01.2026 01:00 22,3 °C -3,8 °C 51 % 89 % 1023,9 hPa 0,0 l/m² 0,1 km/h (0 Bft) O-NO 0,00 h 0 W/m² -5,4 °C -3,8 °C 0,3 km/h (0 Bft)
19.01.2026 02:00 22,2 °C -4,3 °C 51 % 89 % 1023,8 hPa 0,0 l/m² 0,0 km/h (0 Bft) O-NO 0,00 h 0 W/m² -5,8 °C -4,3 °C 0,0 km/h (0 Bft)
19.01.2026 03:00 22,2 °C -4,7 °C 51 % 89 % 1023,5 hPa 0,0 l/m² 0,0 km/h (0 Bft) O-NO 0,00 h 0 W/m² -6,2 °C -4,7 °C 0,0 km/h (0 Bft)
19.01.2026 04:00 22,2 °C -5,0 °C 50 % 90 % 1023,2 hPa 0,0 l/m² 0,0 km/h (0 Bft) O-NO 0,00 h 0 W/m² -6,4 °C -5,0 °C 0,0 km/h (0 Bft)
19.01.2026 05:00 22,3 °C -5,0 °C 50 % 90 % 1023,0 hPa 0,0 l/m² 2,5 km/h (1 Bft) O-NO 0,00 h 0 W/m² -6,3 °C -5,1 °C 3,7 km/h (1 Bft)
19.01.2026 06:00 22,2 °C -4,2 °C 49 % 90 % 1023,1 hPa 0,0 l/m² 2,4 km/h (1 Bft) O-NO 0,00 h 0 W/m² -5,5 °C -4,2 °C 3,9 km/h (1 Bft)
19.01.2026 07:00 22,1 °C -4,5 °C 47 % 90 % 1023,2 hPa 0,0 l/m² 0,0 km/h (0 Bft) O-NO 0,00 h 0 W/m² -5,9 °C -4,5 °C 0,0 km/h (0 Bft)
19.01.2026 08:00 22,1 °C -4,9 °C 47 % 89 % 1023,3 hPa 0,0 l/m² 0,0 km/h (0 Bft) O-NO 0,07 h 22 W/m² -6,4 °C -4,9 °C 0,0 km/h (0 Bft)
19.01.2026 09:00 22,4 °C -2,8 °C 48 % 91 % 1023,6 hPa 0,0 l/m² 0,0 km/h (0 Bft) O-NO 1,00 h 149 W/m² -4,2 °C -2,8 °C 0,0 km/h (0 Bft)
19.01.2026 10:00 22,7 °C 0,7 °C 47 % 84 % 1023,7 hPa 0,0 l/m² 5,8 km/h (2 Bft) O 1,00 h 258 W/m² -1,6 °C -0,4 °C 8,0 km/h (2 Bft)
19.01.2026 11:00 22,8 °C 3,3 °C 47 % 71 % 1023,3 hPa 0,0 l/m² 11,1 km/h (2 Bft) O 1,00 h 318 W/m² -1,5 °C -0,5 °C 14,0 km/h (3 Bft)
19.01.2026 12:00 23,0 °C 5,0 °C 47 % 62 % 1023,1 hPa 0,0 l/m² 9,4 km/h (2 Bft) O 1,00 h 336 W/m² -1,8 °C 2,3 °C 12,8 km/h (3 Bft)
19.01.2026 13:00 22,9 °C 5,6 °C 47 % 57 % 1022,7 hPa 0,0 l/m² 10,9 km/h (2 Bft) O-SO 0,98 h 304 W/m² -2,3 °C 2,2 °C 14,7 km/h (3 Bft)
19.01.2026 14:00 22,9 °C 5,8 °C 47 % 57 % 1022,2 hPa 0,0 l/m² 13,7 km/h (3 Bft) O 1,00 h 222 W/m² -2,1 °C 0,8 °C 17,9 km/h (3 Bft)
19.01.2026 15:00 22,8 °C 5,4 °C 48 % 57 % 1022,1 hPa 0,0 l/m² 15,6 km/h (3 Bft) O 0,88 h 96 W/m² -2,5 °C -0,7 °C 20,3 km/h (4 Bft)
19.01.2026 16:00 22,5 °C 4,0 °C 45 % 61 % 1022,3 hPa 0,0 l/m² 13,0 km/h (3 Bft) O 0,00 h 16 W/m² -2,8 °C -0,9 °C 15,9 km/h (3 Bft)
19.01.2026 17:00 22,3 °C 2,3 °C 46 % 67 % 1022,5 hPa 0,0 l/m² 12,1 km/h (2 Bft) O 0,00 h 0 W/m² -3,1 °C -2,4 °C 14,7 km/h (3 Bft)
19.01.2026 18:00 22,3 °C 1,4 °C 48 % 70 % 1022,5 hPa 0,0 l/m² 10,3 km/h (2 Bft) O 0,00 h 0 W/m² -3,5 °C -2,0 °C 12,9 km/h (3 Bft)
19.01.2026 19:00 22,2 °C 1,2 °C 49 % 72 % 1022,5 hPa 0,0 l/m² 12,2 km/h (2 Bft) O-SO 0,00 h 0 W/m² -3,2 °C -3,6 °C 15,5 km/h (3 Bft)
19.01.2026 20:00 22,2 °C 1,8 °C 49 % 69 % 1022,7 hPa 0,0 l/m² 10,9 km/h (2 Bft) SO 0,00 h 0 W/m² -3,2 °C -2,0 °C 15,6 km/h (3 Bft)
19.01.2026 21:00 22,4 °C 1,5 °C 49 % 69 % 1022,9 hPa 0,0 l/m² 4,1 km/h (1 Bft) NO 0,00 h 0 W/m² -3,6 °C 0,5 °C 6,4 km/h (2 Bft)
19.01.2026 22:00 22,4 °C -0,0 °C 50 % 73 % 1023,2 hPa 0,0 l/m² 0,3 km/h (0 Bft) O 0,00 h 0 W/m² -4,2 °C -0,0 °C 0,5 km/h (0 Bft)
19.01.2026 23:00 22,4 °C -1,5 °C 50 % 78 % 1023,3 hPa 0,0 l/m² 0,3 km/h (0 Bft) O-NO 0,00 h 0 W/m² -4,9 °C -1,5 °C 0,5 km/h (0 Bft)
20.01.2026 00:00 22,4 °C -2,4 °C 50 % 80 % 1023,3 hPa 0,0 l/m² 0,9 km/h (0 Bft) O-NO 0,00 h 0 W/m² -5,3 °C -2,4 °C 1,6 km/h (1 Bft)
20.01.2026 01:00 22,4 °C -2,6 °C 49 % 82 % 1023,1 hPa 0,0 l/m² 0,5 km/h (0 Bft) O-NO 0,00 h 0 W/m² -5,3 °C -2,6 °C 0,7 km/h (0 Bft)
20.01.2026 02:00 22,4 °C -3,0 °C 49 % 83 % 1023,0 hPa 0,0 l/m² 4,0 km/h (1 Bft) O-NO 0,00 h 0 W/m² -5,5 °C -3,1 °C 5,9 km/h (2 Bft)
20.01.2026 03:00 22,4 °C -3,3 °C 49 % 84 % 1022,7 hPa 0,0 l/m² 2,3 km/h (1 Bft) O-NO 0,00 h 0 W/m² -5,7 °C -3,3 °C 3,8 km/h (1 Bft)
20.01.2026 04:00 22,4 °C -3,8 °C 49 % 84 % 1022,6 hPa 0,0 l/m² 0,7 km/h (0 Bft) O 0,00 h 0 W/m² -6,0 °C -3,8 °C 1,1 km/h (0 Bft)
20.01.2026 05:00 22,3 °C -4,3 °C 49 % 85 % 1022,5 hPa 0,0 l/m² 0,0 km/h (0 Bft) O-NO 0,00 h 0 W/m² -6,4 °C -4,3 °C 0,0 km/h (0 Bft)
20.01.2026 06:00 22,3 °C -4,8 °C 49 % 86 % 1022,2 hPa 0,0 l/m² 0,2 km/h (0 Bft) O 0,00 h 0 W/m² -6,8 °C -4,8 °C 0,4 km/h (0 Bft)
20.01.2026 07:00 22,3 °C -4,7 °C 46 % 87 % 1021,9 hPa 0,0 l/m² 0,3 km/h (0 Bft) O-NO 0,00 h 0 W/m² -6,5 °C -4,7 °C 0,6 km/h (0 Bft)
20.01.2026 08:00 22,3 °C -4,4 °C 47 % 86 % 1021,9 hPa 0,0 l/m² 0,0 km/h (0 Bft) O-NO 0,20 h 29 W/m² -6,4 °C -4,4 °C 0,0 km/h (0 Bft)
20.01.2026 09:00 22,6 °C -2,2 °C 47 % 84 % 1021,7 hPa 0,0 l/m² 0,9 km/h (0 Bft) O-NO 1,00 h 137 W/m² -4,5 °C -2,2 °C 1,7 km/h (1 Bft)
20.01.2026 10:00 22,9 °C 0,3 °C 46 % 75 % 1021,7 hPa 0,0 l/m² 6,9 km/h (2 Bft) O-SO 1,00 h 254 W/m² -3,6 °C -0,8 °C 9,8 km/h (2 Bft)
20.01.2026 11:00 23,1 °C 1,9 °C 46 % 70 % 1021,2 hPa 0,0 l/m² 7,5 km/h (2 Bft) S-SO 1,00 h 328 W/m² -3,1 °C 0,6 °C 10,6 km/h (2 Bft)
20.01.2026 12:00 23,2 °C 3,3 °C 46 % 64 % 1020,6 hPa 0,0 l/m² 6,2 km/h (2 Bft) SO 1,00 h 350 W/m² -2,7 °C 2,7 °C 9,9 km/h (2 Bft)
20.01.2026 13:00 23,2 °C 4,2 °C 46 % 61 % 1020,0 hPa 0,0 l/m² 8,3 km/h (2 Bft) O-SO 1,00 h 319 W/m² -2,6 °C 2,5 °C 12,0 km/h (2 Bft)
20.01.2026 14:00 23,1 °C 4,6 °C 46 % 60 % 1019,5 hPa 0,0 l/m² 6,9 km/h (2 Bft) O-SO 0,98 h 235 W/m² -2,4 °C 3,8 °C 10,7 km/h (2 Bft)
20.01.2026 15:00 22,9 °C 4,0 °C 47 % 63 % 1019,3 hPa 0,0 l/m² 6,6 km/h (2 Bft) O-SO 0,92 h 103 W/m² -2,5 °C 3,2 °C 10,4 km/h (2 Bft)
20.01.2026 16:00 22,7 °C 2,3 °C 44 % 66 % 1019,1 hPa 0,0 l/m² 3,6 km/h (1 Bft) O 0,00 h 17 W/m² -3,3 °C 2,1 °C 5,8 km/h (2 Bft)
20.01.2026 17:00 22,4 °C 0,6 °C 42 % 69 % 1018,6 hPa 0,0 l/m² 0,0 km/h (0 Bft) O 0,00 h 0 W/m² -4,3 °C 0,6 °C 0,0 km/h (0 Bft)
20.01.2026 18:00 22,3 °C -1,2 °C 44 % 75 % 1018,2 hPa 0,0 l/m² 0,0 km/h (0 Bft) O 0,00 h 0 W/m² -5,1 °C -1,2 °C 0,0 km/h (0 Bft)
20.01.2026 19:00 22,3 °C -2,3 °C 45 % 80 % 1017,7 hPa 0,0 l/m² 0,4 km/h (0 Bft) O-NO 0,00 h 0 W/m² -5,3 °C -2,3 °C 0,8 km/h (0 Bft)
20.01.2026 20:00 22,3 °C -2,7 °C 46 % 81 % 1017,2 hPa 0,0 l/m² 0,1 km/h (0 Bft) O-NO 0,00 h 0 W/m² -5,4 °C -2,7 °C 0,3 km/h (0 Bft)
20.01.2026 21:00 22,4 °C -3,4 °C 46 % 83 % 1016,7 hPa 0,0 l/m² 0,3 km/h (0 Bft) O-NO 0,00 h 0 W/m² -5,8 °C -3,4 °C 0,6 km/h (0 Bft)
20.01.2026 22:00 22,5 °C -4,0 °C 46 % 84 % 1016,4 hPa 0,0 l/m² 0,0 km/h (0 Bft) O-NO 0,00 h 0 W/m² -6,3 °C -4,0 °C 0,0 km/h (0 Bft)
20.01.2026 23:00 22,5 °C -4,7 °C 46 % 85 % 1016,1 hPa 0,0 l/m² 0,0 km/h (0 Bft) O-NO 0,00 h 0 W/m² -6,8 °C -4,7 °C 0,0 km/h (0 Bft)
21.01.2026 00:00 22,4 °C -5,2 °C 46 % 86 % 1015,5 hPa 0,0 l/m² 0,0 km/h (0 Bft) O-NO 0,00 h 0 W/m² -7,2 °C -5,2 °C 0,0 km/h (0 Bft)
21.01.2026 01:00 22,4 °C -5,4 °C 46 % 87 % 1014,8 hPa 0,0 l/m² 0,6 km/h (0 Bft) O-NO 0,00 h 0 W/m² -7,3 °C -5,4 °C 0,8 km/h (0 Bft)
21.01.2026 02:00 22,4 °C -4,7 °C 46 % 87 % 1014,2 hPa 0,0 l/m² 0,6 km/h (0 Bft) O 0,00 h 0 W/m² -6,6 °C -4,7 °C 0,9 km/h (0 Bft)
21.01.2026 03:00 22,4 °C -5,2 °C 46 % 86 % 1013,5 hPa 0,0 l/m² 0,0 km/h (0 Bft) O 0,00 h 0 W/m² -7,2 °C -5,2 °C 0,0 km/h (0 Bft)
21.01.2026 04:00 22,4 °C -5,8 °C 46 % 86 % 1012,8 hPa 0,0 l/m² 0,0 km/h (0 Bft) O 0,00 h 0 W/m² -7,6 °C -5,8 °C 0,0 km/h (0 Bft)
21.01.2026 05:00 22,4 °C -5,8 °C 46 % 87 % 1012,2 hPa 0,0 l/m² 0,0 km/h (0 Bft) O-SO 0,00 h 0 W/m² -7,6 °C -5,8 °C 0,0 km/h (0 Bft)
21.01.2026 06:00 22,4 °C -6,4 °C 46 % 87 % 1011,8 hPa 0,0 l/m² 0,0 km/h (0 Bft) O-SO 0,00 h 0 W/m² -8,2 °C -6,4 °C 0,0 km/h (0 Bft)
21.01.2026 07:00 22,3 °C -6,6 °C 43 % 88 % 1011,4 hPa 0,0 l/m² 0,0 km/h (0 Bft) O-SO 0,00 h 0 W/m² -8,2 °C -6,6 °C 0,0 km/h (0 Bft)
21.01.2026 08:00 22,3 °C -6,5 °C 43 % 88 % 1011,3 hPa 0,0 l/m² 0,0 km/h (0 Bft) O-SO 0,10 h 25 W/m² -8,1 °C -6,5 °C 0,0 km/h (0 Bft)
21.01.2026 09:00 22,5 °C -4,1 °C 44 % 89 % 1010,7 hPa 0,0 l/m² 0,0 km/h (0 Bft) O-SO 1,00 h 135 W/m² -5,6 °C -4,1 °C 0,0 km/h (0 Bft)
21.01.2026 10:00 22,8 °C -0,5 °C 44 % 83 % 1010,1 hPa 0,0 l/m² 0,0 km/h (0 Bft) O-SO 1,00 h 257 W/m² -3,1 °C -0,5 °C 0,1 km/h (0 Bft)
21.01.2026 11:00 23,1 °C 2,0 °C 44 % 72 % 1009,4 hPa 0,0 l/m² 1,8 km/h (1 Bft) O-SO 1,00 h 325 W/m² -2,5 °C 2,0 °C 3,0 km/h (1 Bft)
21.01.2026 12:00 23,2 °C 3,7 °C 44 % 68 % 1008,7 hPa 0,0 l/m² 5,7 km/h (2 Bft) S-SO 1,00 h 348 W/m² -1,7 °C 3,4 °C 9,3 km/h (2 Bft)
21.01.2026 13:00 23,2 °C 4,8 °C 44 % 63 % 1008,0 hPa 0,0 l/m² 4,7 km/h (1 Bft) S-SO 1,00 h 321 W/m² -1,6 °C 4,6 °C 7,7 km/h (2 Bft)
21.01.2026 14:00 23,1 °C 5,8 °C 44 % 59 % 1007,2 hPa 0,0 l/m² 2,4 km/h (1 Bft) SO 0,98 h 239 W/m² -1,6 °C 5,8 °C 4,1 km/h (1 Bft)
21.01.2026 15:00 22,9 °C 5,5 °C 45 % 59 % 1006,7 hPa 0,0 l/m² 3,2 km/h (1 Bft) O 0,97 h 108 W/m² -1,8 °C 5,4 °C 5,4 km/h (2 Bft)
21.01.2026 16:00 22,7 °C 3,7 °C 43 % 63 % 1006,2 hPa 0,0 l/m² 5,0 km/h (1 Bft) O-NO 0,00 h 19 W/m² -2,7 °C 3,6 °C 6,8 km/h (2 Bft)
21.01.2026 17:00 22,6 °C 1,2 °C 44 % 69 % 1005,8 hPa 0,0 l/m² 2,1 km/h (1 Bft) O-NO 0,00 h 0 W/m² -3,9 °C 1,1 °C 2,7 km/h (1 Bft)
21.01.2026 18:00 22,4 °C -0,9 °C 45 % 76 % 1005,4 hPa 0,0 l/m² 2,7 km/h (1 Bft) O-NO 0,00 h 0 W/m² -4,6 °C -0,9 °C 4,7 km/h (1 Bft)
21.01.2026 19:00 22,3 °C -1,4 °C 43 % 81 % 1004,9 hPa 0,0 l/m² 4,1 km/h (1 Bft) O-NO 0,00 h 0 W/m² -4,2 °C -1,5 °C 7,2 km/h (2 Bft)
21.01.2026 20:00 22,2 °C -2,3 °C 44 % 83 % 1004,6 hPa 0,0 l/m² 1,1 km/h (1 Bft) O-NO 0,00 h 0 W/m² -4,8 °C -2,3 °C 3,1 km/h (1 Bft)
21.01.2026 21:00 22,3 °C -3,3 °C 44 % 85 % 1004,3 hPa 0,0 l/m² 4,1 km/h (1 Bft) O-NO 0,00 h 0 W/m² -5,5 °C -3,4 °C 5,2 km/h (1 Bft)
21.01.2026 22:00 22,4 °C -4,1 °C 44 % 86 % 1003,9 hPa 0,0 l/m² 2,9 km/h (1 Bft) O-NO 0,00 h 0 W/m² -6,1 °C -4,1 °C 4,7 km/h (1 Bft)
21.01.2026 23:00 22,4 °C -4,6 °C 44 % 87 % 1003,5 hPa 0,0 l/m² 0,3 km/h (0 Bft) O-NO 0,00 h 0 W/m² -6,5 °C -4,6 °C 0,8 km/h (0 Bft)
22.01.2026 00:00 22,4 °C -5,1 °C 45 % 87 % 1003,1 hPa 0,0 l/m² 0,0 km/h (0 Bft) O-NO 0,00 h 0 W/m² -6,9 °C -5,1 °C 0,0 km/h (0 Bft)
22.01.2026 01:00 22,4 °C -5,9 °C 45 % 87 % 1002,8 hPa 0,0 l/m² 0,0 km/h (0 Bft) O-NO 0,00 h 0 W/m² -7,7 °C -5,9 °C 0,0 km/h (0 Bft)
22.01.2026 02:00 22,4 °C -6,6 °C 45 % 87 % 1002,6 hPa 0,0 l/m² 0,0 km/h (0 Bft) O-NO 0,00 h 0 W/m² -8,4 °C -6,6 °C 0,0 km/h (0 Bft)
22.01.2026 03:00 22,4 °C -7,3 °C 44 % 87 % 1002,3 hPa 0,0 l/m² 0,0 km/h (0 Bft) O-NO 0,00 h 0 W/m² -9,1 °C -7,3 °C 0,0 km/h (0 Bft)
22.01.2026 04:00 22,4 °C -7,8 °C 44 % 88 % 1002,2 hPa 0,0 l/m² 0,0 km/h (0 Bft) O-NO 0,00 h 0 W/m² -9,5 °C -7,8 °C 0,0 km/h (0 Bft)
22.01.2026 05:00 22,6 °C -8,2 °C 44 % 88 % 1002,2 hPa 0,0 l/m² 0,0 km/h (0 Bft) O-NO 0,00 h 0 W/m² -9,8 °C -8,2 °C 0,0 km/h (0 Bft)
22.01.2026 06:00 22,5 °C -8,4 °C 44 % 88 % 1002,0 hPa 0,0 l/m² 0,0 km/h (0 Bft) O-NO 0,00 h 0 W/m² -10,0 °C -8,4 °C 0,0 km/h (0 Bft)
22.01.2026 07:00 22,3 °C -8,7 °C 41 % 89 % 1002,2 hPa 0,0 l/m² 0,0 km/h (0 Bft) O-NO 0,00 h 0 W/m² -10,3 °C -8,7 °C 0,0 km/h (0 Bft)
22.01.2026 08:00 22,4 °C -8,8 °C 42 % 89 % 1002,3 hPa 0,0 l/m² 0,0 km/h (0 Bft) O-NO 0,02 h 23 W/m² -10,3 °C -8,8 °C 0,0 km/h (0 Bft)
22.01.2026 09:00 22,7 °C -6,3 °C 42 % 90 % 1002,3 hPa 0,0 l/m² 0,0 km/h (0 Bft) O-NO 1,00 h 155 W/m² -7,7 °C -6,3 °C 0,0 km/h (0 Bft)
22.01.2026 10:00 22,9 °C -3,2 °C 43 % 88 % 1002,2 hPa 0,0 l/m² 2,1 km/h (1 Bft) O-NO 1,00 h 268 W/m² -4,9 °C -3,4 °C 3,1 km/h (1 Bft)
22.01.2026 11:00 23,2 °C -1,7 °C 43 % 81 % 1002,0 hPa 0,0 l/m² 3,5 km/h (1 Bft) O 1,00 h 333 W/m² -4,5 °C -2,1 °C 6,0 km/h (2 Bft)
22.01.2026 12:00 23,3 °C 0,5 °C 43 % 73 % 1001,7 hPa 0,0 l/m² 3,5 km/h (1 Bft) NO 1,00 h 352 W/m² -3,8 °C 0,4 °C 7,7 km/h (2 Bft)
22.01.2026 13:00 23,3 °C 1,1 °C 43 % 68 % 1001,5 hPa 0,0 l/m² 7,3 km/h (2 Bft) NO 0,98 h 320 W/m² -4,1 °C -0,4 °C 12,2 km/h (2 Bft)
22.01.2026 14:00 23,2 °C 0,3 °C 43 % 71 % 1001,6 hPa 0,0 l/m² 9,4 km/h (2 Bft) O 1,00 h 229 W/m² -4,4 °C -2,7 °C 13,4 km/h (3 Bft)
22.01.2026 15:00 23,1 °C -0,1 °C 44 % 73 % 1001,5 hPa 0,0 l/m² 6,0 km/h (2 Bft) O 0,93 h 102 W/m² -4,4 °C -1,2 °C 9,2 km/h (2 Bft)
22.01.2026 16:00 22,9 °C -0,8 °C 43 % 74 % 1001,8 hPa 0,0 l/m² 0,3 km/h (0 Bft) O 0,00 h 20 W/m² -4,8 °C -0,8 °C 1,1 km/h (1 Bft)
22.01.2026 17:00 22,8 °C -2,4 °C 43 % 77 % 1002,0 hPa 0,0 l/m² 0,0 km/h (0 Bft) O 0,00 h 0 W/m² -6,0 °C -2,4 °C 0,0 km/h (0 Bft)
22.01.2026 18:00 22,7 °C -4,3 °C 42 % 79 % 1002,1 hPa 0,0 l/m² 0,0 km/h (0 Bft) O 0,00 h 0 W/m² -7,3 °C -4,3 °C 0,0 km/h (0 Bft)
22.01.2026 19:00 22,4 °C -5,6 °C 41 % 82 % 1002,2 hPa 0,0 l/m² 0,0 km/h (0 Bft) O 0,00 h 0 W/m² -8,2 °C -5,6 °C 0,0 km/h (0 Bft)
22.01.2026 20:00 22,5 °C -6,5 °C 42 % 83 % 1002,3 hPa 0,0 l/m² 0,0 km/h (0 Bft) O 0,00 h 0 W/m² -8,8 °C -6,5 °C 0,0 km/h (0 Bft)
22.01.2026 21:00 22,7 °C -7,3 °C 42 % 84 % 1002,2 hPa 0,0 l/m² 0,0 km/h (0 Bft) O 0,00 h 0 W/m² -9,5 °C -7,3 °C 0,0 km/h (0 Bft)
22.01.2026 22:00 22,7 °C -7,8 °C 43 % 86 % 1002,4 hPa 0,0 l/m² 0,0 km/h (0 Bft) O 0,00 h 0 W/m² -9,7 °C -7,8 °C 0,0 km/h (0 Bft)
22.01.2026 23:00 22,6 °C -8,2 °C 43 % 87 % 1002,6 hPa 0,0 l/m² 0,0 km/h (0 Bft) O 0,00 h 0 W/m² -10,0 °C -8,2 °C 0,0 km/h (0 Bft)
23.01.2026 00:00 22,6 °C -8,4 °C 43 % 87 % 1002,5 hPa 0,0 l/m² 0,0 km/h (0 Bft) O 0,00 h 0 W/m² -10,2 °C -8,4 °C 0,0 km/h (0 Bft)
23.01.2026 01:00 22,6 °C -8,4 °C 43 % 88 % 1002,5 hPa 0,0 l/m² 2,7 km/h (1 Bft) O 0,00 h 0 W/m² -9,9 °C -8,5 °C 4,4 km/h (1 Bft)
23.01.2026 02:00 22,6 °C -7,4 °C 43 % 89 % 1002,7 hPa 0,0 l/m² 2,2 km/h (1 Bft) O 0,00 h 0 W/m² -8,9 °C -7,5 °C 4,2 km/h (1 Bft)
23.01.2026 03:00 22,6 °C -7,8 °C 43 % 88 % 1002,5 hPa 0,0 l/m² 3,3 km/h (1 Bft) O-NO 0,00 h 0 W/m² -9,4 °C -7,8 °C 5,8 km/h (2 Bft)
23.01.2026 04:00 22,6 °C -8,2 °C 43 % 88 % 1002,6 hPa 0,0 l/m² 0,9 km/h (0 Bft) O-NO 0,00 h 0 W/m² -9,8 °C -8,2 °C 2,4 km/h (1 Bft)
23.01.2026 05:00 22,6 °C -8,4 °C 43 % 88 % 1002,7 hPa 0,0 l/m² 1,5 km/h (1 Bft) O-NO 0,00 h 0 W/m² -10,1 °C -8,4 °C 3,1 km/h (1 Bft)
23.01.2026 06:00 22,7 °C -9,0 °C 43 % 88 % 1002,7 hPa 0,0 l/m² 0,1 km/h (0 Bft) O-NO 0,00 h 0 W/m² -10,6 °C -9,0 °C 0,2 km/h (0 Bft)
23.01.2026 07:00 22,4 °C -9,4 °C 40 % 88 % 1002,8 hPa 0,0 l/m² 0,1 km/h (0 Bft) O-NO 0,00 h 5 W/m² -11,0 °C -9,4 °C 0,4 km/h (0 Bft)
23.01.2026 08:00 22,4 °C -8,9 °C 41 % 89 % 1002,9 hPa 0,0 l/m² 1,2 km/h (1 Bft) O-NO 0,00 h 20 W/m² -10,4 °C -8,9 °C 1,9 km/h (1 Bft)
23.01.2026 09:00 22,6 °C -7,4 °C 41 % 90 % 1003,2 hPa 0,0 l/m² 1,7 km/h (1 Bft) O-NO 0,80 h 77 W/m² -8,8 °C -7,5 °C 3,0 km/h (1 Bft)
23.01.2026 10:00 22,9 °C -4,9 °C 41 % 89 % 1003,5 hPa 0,0 l/m² 8,5 km/h (2 Bft) O 1,00 h 193 W/m² -6,5 °C -7,4 °C 12,5 km/h (2 Bft)
23.01.2026 11:00 23,0 °C -3,0 °C 42 % 83 % 1003,5 hPa 0,0 l/m² 11,1 km/h (2 Bft) O 1,00 h 238 W/m² -5,4 °C -7,5 °C 15,0 km/h (3 Bft)
23.01.2026 12:00 22,9 °C -2,4 °C 42 % 81 % 1003,3 hPa 0,0 l/m² 15,1 km/h (3 Bft) O 0,98 h 208 W/m² -5,2 °C -9,8 °C 19,8 km/h (4 Bft)
23.01.2026 13:00 22,9 °C -1,7 °C 42 % 81 % 1003,2 hPa 0,0 l/m² 14,7 km/h (3 Bft) O 1,02 h 166 W/m² -4,5 °C -8,7 °C 19,4 km/h (3 Bft)
23.01.2026 14:00 22,8 °C -1,4 °C 41 % 79 % 1003,2 hPa 0,0 l/m² 17,0 km/h (3 Bft) O 1,00 h 139 W/m² -4,5 °C -9,8 °C 21,5 km/h (4 Bft)
23.01.2026 15:00 22,7 °C -1,4 °C 41 % 79 % 1003,3 hPa 0,0 l/m² 16,0 km/h (3 Bft) O 1,00 h 83 W/m² -4,6 °C -9,1 °C 20,1 km/h (4 Bft)
23.01.2026 16:00 22,6 °C -1,6 °C 41 % 79 % 1003,4 hPa 0,0 l/m² 9,6 km/h (2 Bft) O-NO 0,12 h 29 W/m² -4,7 °C -4,8 °C 14,7 km/h (3 Bft)
23.01.2026 17:00 22,5 °C -2,7 °C 42 % 81 % 1003,7 hPa 0,0 l/m² 7,2 km/h (2 Bft) O-NO 0,00 h 0 W/m² -5,5 °C -4,2 °C 12,2 km/h (2 Bft)
23.01.2026 18:00 22,5 °C -3,5 °C 43 % 83 % 1004,1 hPa 0,0 l/m² 6,8 km/h (2 Bft) O-NO 0,00 h 0 W/m² -6,0 °C -4,7 °C 11,2 km/h (2 Bft)
23.01.2026 19:00 22,5 °C -3,6 °C 45 % 83 % 1004,5 hPa 0,0 l/m² 5,6 km/h (2 Bft) O-NO 0,00 h 0 W/m² -6,1 °C -4,0 °C 10,0 km/h (2 Bft)
23.01.2026 20:00 22,7 °C -3,6 °C 45 % 83 % 1004,7 hPa 0,0 l/m² 7,4 km/h (2 Bft) O-NO 0,00 h 0 W/m² -6,0 °C -5,5 °C 12,0 km/h (2 Bft)
23.01.2026 21:00 23,1 °C -3,6 °C 45 % 82 % 1004,9 hPa 0,0 l/m² 10,3 km/h (2 Bft) O-NO 0,00 h 0 W/m² -6,2 °C -7,5 °C 15,4 km/h (3 Bft)
23.01.2026 22:00 23,0 °C -3,7 °C 45 % 83 % 1005,1 hPa 0,0 l/m² 7,0 km/h (2 Bft) O-NO 0,00 h 0 W/m² -6,2 °C -4,9 °C 11,8 km/h (2 Bft)
23.01.2026 23:00 22,7 °C -3,7 °C 45 % 83 % 1005,1 hPa 0,0 l/m² 5,8 km/h (2 Bft) O-NO 0,00 h 0 W/m² -6,1 °C -4,3 °C 10,2 km/h (2 Bft)
24.01.2026 00:00 22,7 °C -3,5 °C 45 % 83 % 1005,1 hPa 0,0 l/m² 5,6 km/h (2 Bft) O-NO 0,00 h 0 W/m² -5,9 °C -4,1 °C 11,0 km/h (2 Bft)
24.01.2026 01:00 22,6 °C -3,4 °C 45 % 84 % 1005,2 hPa 0,0 l/m² 3,8 km/h (1 Bft) NO 0,00 h 0 W/m² -5,7 °C -3,5 °C 8,3 km/h (2 Bft)
24.01.2026 02:00 22,5 °C -3,4 °C 44 % 84 % 1005,4 hPa 0,0 l/m² 4,2 km/h (1 Bft) NO 0,00 h 0 W/m² -5,7 °C -3,5 °C 9,0 km/h (2 Bft)
24.01.2026 03:00 22,5 °C -3,4 °C 44 % 84 % 1005,5 hPa 0,0 l/m² 1,5 km/h (1 Bft) NO 0,00 h 0 W/m² -5,7 °C -3,4 °C 3,6 km/h (1 Bft)
24.01.2026 04:00 22,5 °C -3,5 °C 44 % 85 % 1005,6 hPa 0,0 l/m² 2,0 km/h (1 Bft) N-NO 0,00 h 0 W/m² -5,7 °C -3,5 °C 4,6 km/h (1 Bft)
24.01.2026 05:00 22,4 °C -3,4 °C 44 % 85 % 1005,5 hPa 0,0 l/m² 3,6 km/h (1 Bft) NO 0,00 h 0 W/m² -5,6 °C -3,5 °C 7,0 km/h (2 Bft)
24.01.2026 06:00 22,4 °C -3,3 °C 44 % 86 % 1005,8 hPa 0,0 l/m² 1,6 km/h (1 Bft) NO 0,00 h 0 W/m² -5,4 °C -3,4 °C 4,0 km/h (1 Bft)
24.01.2026 07:00 22,4 °C -3,3 °C 44 % 86 % 1006,1 hPa 0,0 l/m² 1,0 km/h (0 Bft) NO 0,00 h 0 W/m² -5,3 °C -3,3 °C 2,5 km/h (1 Bft)
24.01.2026 08:00 22,4 °C -3,2 °C 44 % 87 % 1006,6 hPa 0,0 l/m² 0,7 km/h (0 Bft) NO 0,00 h 9 W/m² -5,1 °C -3,2 °C 1,8 km/h (1 Bft)
24.01.2026 09:00 22,6 °C -2,9 °C 45 % 87 % 1006,7 hPa 0,0 l/m² 2,5 km/h (1 Bft) NO 0,00 h 25 W/m² -4,7 °C -2,9 °C 5,3 km/h (1 Bft)
24.01.2026 10:00 22,4 °C -2,5 °C 42 % 87 % 1006,9 hPa 0,0 l/m² 4,9 km/h (1 Bft) O-NO 0,07 h 36 W/m² -4,4 °C -2,8 °C 8,4 km/h (2 Bft)
24.01.2026 11:00 22,3 °C -2,0 °C 43 % 86 % 1006,8 hPa 0,0 l/m² 5,7 km/h (2 Bft) O-NO 0,75 h 69 W/m² -4,1 °C -2,6 °C 9,3 km/h (2 Bft)
24.01.2026 12:00 22,3 °C -1,5 °C 46 % 84 % 1006,9 hPa 0,0 l/m² 6,0 km/h (2 Bft) O-NO 0,97 h 81 W/m² -3,8 °C -2,2 °C 9,9 km/h (2 Bft)
24.01.2026 13:00 22,4 °C -1,3 °C 48 % 83 % 1006,9 hPa 0,0 l/m² 8,3 km/h (2 Bft) O-NO 0,47 h 49 W/m² -3,8 °C -3,3 °C 12,4 km/h (2 Bft)
24.01.2026 14:00 22,4 °C -1,1 °C 47 % 82 % 1006,6 hPa 0,0 l/m² 4,8 km/h (1 Bft) O-NO 0,72 h 59 W/m² -3,7 °C -1,5 °C 8,4 km/h (2 Bft)
24.01.2026 15:00 22,5 °C -0,8 °C 46 % 82 % 1006,5 hPa 0,0 l/m² 5,8 km/h (2 Bft) NO 0,13 h 35 W/m² -3,4 °C -1,5 °C 10,1 km/h (2 Bft)
24.01.2026 16:00 22,6 °C -1,0 °C 46 % 84 % 1006,6 hPa 0,0 l/m² 2,8 km/h (1 Bft) O-NO 0,00 h 11 W/m² -3,4 °C -1,1 °C 5,7 km/h (2 Bft)
24.01.2026 17:00 22,5 °C -1,1 °C 47 % 84 % 1006,7 hPa 0,0 l/m² 2,1 km/h (1 Bft) O-NO 0,00 h 0 W/m² -3,5 °C -1,1 °C 4,7 km/h (1 Bft)
24.01.2026 18:00 22,3 °C -1,2 °C 46 % 85 % 1006,6 hPa 0,0 l/m² 1,3 km/h (1 Bft) NO 0,00 h 0 W/m² -3,4 °C -1,2 °C 3,5 km/h (1 Bft)
24.01.2026 19:00 22,3 °C -1,2 °C 48 % 85 % 1006,8 hPa 0,0 l/m² 0,3 km/h (0 Bft) NO 0,00 h 0 W/m² -3,4 °C -1,2 °C 1,1 km/h (1 Bft)
24.01.2026 20:00 22,3 °C -1,3 °C 48 % 85 % 1006,8 hPa 0,0 l/m² 0,1 km/h (0 Bft) N 0,00 h 0 W/m² -3,5 °C -1,3 °C 0,3 km/h (0 Bft)
24.01.2026 21:00 22,5 °C -1,6 °C 48 % 86 % 1006,9 hPa 0,0 l/m² 0,0 km/h (0 Bft) N 0,00 h 0 W/m² -3,7 °C -1,6 °C 0,0 km/h (0 Bft)
24.01.2026 22:00 22,5 °C -1,9 °C 48 % 86 % 1006,8 hPa 0,0 l/m² 0,0 km/h (0 Bft) N 0,00 h 0 W/m² -3,9 °C -1,9 °C 0,0 km/h (0 Bft)
24.01.2026 23:00 22,4 °C -1,9 °C 47 % 87 % 1006,7 hPa 0,0 l/m² 0,4 km/h (0 Bft) N 0,00 h 0 W/m² -3,7 °C -1,9 °C 1,1 km/h (1 Bft)
25.01.2026 00:00 22,5 °C -1,3 °C 47 % 89 % 1006,3 hPa 0,0 l/m² 3,8 km/h (1 Bft) O-NO 0,00 h 0 W/m² -2,9 °C -1,5 °C 8,4 km/h (2 Bft)
25.01.2026 01:00 22,5 °C -0,9 °C 47 % 89 % 1005,9 hPa 0,0 l/m² 5,4 km/h (1 Bft) O-NO 0,00 h 0 W/m² -2,5 °C -1,6 °C 9,2 km/h (2 Bft)
25.01.2026 02:00 22,4 °C -1,0 °C 47 % 89 % 1005,7 hPa 0,0 l/m² 6,1 km/h (2 Bft) O-NO 0,00 h 0 W/m² -2,5 °C -1,7 °C 10,2 km/h (2 Bft)
25.01.2026 03:00 22,5 °C -1,1 °C 47 % 89 % 1005,6 hPa 0,0 l/m² 7,4 km/h (2 Bft) O-NO 0,00 h 0 W/m² -2,7 °C -2,6 °C 11,5 km/h (2 Bft)
25.01.2026 04:00 22,5 °C -1,2 °C 47 % 88 % 1005,4 hPa 0,0 l/m² 7,5 km/h (2 Bft) O-NO 0,00 h 0 W/m² -2,9 °C -2,6 °C 11,4 km/h (2 Bft)
25.01.2026 05:00 22,4 °C -1,3 °C 46 % 88 % 1004,8 hPa 0,0 l/m² 8,0 km/h (2 Bft) O-NO 0,00 h 0 W/m² -3,0 °C -3,1 °C 12,8 km/h (3 Bft)
25.01.2026 06:00 22,5 °C -1,3 °C 46 % 88 % 1004,7 hPa 0,0 l/m² 7,2 km/h (2 Bft) O-NO 0,00 h 0 W/m² -3,0 °C -2,8 °C 11,3 km/h (2 Bft)
25.01.2026 07:00 22,5 °C -1,4 °C 46 % 88 % 1004,3 hPa 0,0 l/m² 8,1 km/h (2 Bft) O-NO 0,00 h 0 W/m² -3,1 °C -3,6 °C 12,9 km/h (3 Bft)
25.01.2026 08:00 22,6 °C -1,4 °C 47 % 88 % 1004,4 hPa 0,0 l/m² 4,9 km/h (1 Bft) O-NO 0,00 h 9 W/m² -3,1 °C -1,6 °C 8,7 km/h (2 Bft)
25.01.2026 09:00 22,7 °C -1,3 °C 47 % 87 % 1003,8 hPa 0,0 l/m² 4,8 km/h (1 Bft) NO 0,00 h 21 W/m² -3,1 °C -1,6 °C 8,4 km/h (2 Bft)
25.01.2026 10:00 22,5 °C -1,3 °C 43 % 87 % 1003,6 hPa 0,0 l/m² 4,1 km/h (1 Bft) NO 0,00 h 39 W/m² -3,1 °C -1,5 °C 7,7 km/h (2 Bft)
25.01.2026 11:00 22,3 °C -1,2 °C 43 % 87 % 1003,2 hPa 0,0 l/m² 4,8 km/h (1 Bft) NO 0,00 h 43 W/m² -3,0 °C -1,5 °C 9,0 km/h (2 Bft)
25.01.2026 12:00 22,3 °C -1,0 °C 45 % 87 % 1002,5 hPa 0,0 l/m² 5,0 km/h (1 Bft) NO 0,43 h 53 W/m² -2,9 °C -1,5 °C 10,4 km/h (2 Bft)
25.01.2026 13:00 22,4 °C -0,8 °C 46 % 86 % 1002,1 hPa 0,0 l/m² 5,0 km/h (1 Bft) N-NO 0,45 h 54 W/m² -2,8 °C -1,1 °C 10,1 km/h (2 Bft)
25.01.2026 14:00 22,4 °C -0,6 °C 46 % 87 % 1001,6 hPa 0,0 l/m² 4,1 km/h (1 Bft) O-NO 0,00 h 32 W/m² -2,5 °C -1,0 °C 8,8 km/h (2 Bft)
25.01.2026 15:00 22,4 °C -0,7 °C 47 % 88 % 1001,3 hPa 0,0 l/m² 5,1 km/h (1 Bft) NO 0,00 h 15 W/m² -2,5 °C -1,3 °C 10,2 km/h (2 Bft)
25.01.2026 16:00 22,4 °C -0,9 °C 47 % 88 % 1000,7 hPa 0,0 l/m² 4,9 km/h (1 Bft) NO 0,00 h 6 W/m² -2,6 °C -1,0 °C 10,1 km/h (2 Bft)
25.01.2026 17:00 22,4 °C -1,1 °C 48 % 89 % 1000,4 hPa 0,0 l/m² 5,3 km/h (1 Bft) NO 0,00 h 0 W/m² -2,6 °C -1,6 °C 10,0 km/h (2 Bft)
25.01.2026 18:00 22,4 °C -1,2 °C 48 % 90 % 999,8 hPa 0,0 l/m² 3,1 km/h (1 Bft) N-NO 0,00 h 0 W/m² -2,6 °C -1,3 °C 7,2 km/h (2 Bft)
25.01.2026 19:00 22,6 °C -1,3 °C 50 % 91 % 999,4 hPa 0,0 l/m² 5,3 km/h (1 Bft) N-NO 0,00 h 0 W/m² -2,6 °C -2,0 °C 10,7 km/h (2 Bft)
25.01.2026 20:00 22,6 °C -1,3 °C 51 % 91 % 999,2 hPa 0,0 l/m² 2,6 km/h (1 Bft) NO 0,00 h 0 W/m² -2,5 °C -1,3 °C 7,0 km/h (2 Bft)
25.01.2026 21:00 22,7 °C -1,4 °C 52 % 92 % 998,5 hPa 0,0 l/m² 3,3 km/h (1 Bft) N-NO 0,00 h 0 W/m² -2,6 °C -1,4 °C 8,0 km/h (2 Bft)
25.01.2026 22:00 22,7 °C -1,5 °C 51 % 92 % 997,6 hPa 0,0 l/m² 3,0 km/h (1 Bft) N-NO 0,00 h 0 W/m² -2,6 °C -1,5 °C 6,9 km/h (2 Bft)
25.01.2026 23:00 22,6 °C -1,5 °C 51 % 92 % 997,0 hPa 0,0 l/m² 6,5 km/h (2 Bft) N 0,00 h 0 W/m² -2,7 °C -2,4 °C 11,7 km/h (2 Bft)
Min-Datum _ 21.01.26 23.01.26 23.01.26 19.01.26 25.01.26 - 25.01.26 - - - 23.01.26 23.01.26 25.01.26
_ Min-Zeit 20:04 08:00 07:13 13:30 23:51 - 10:02 - - - 08:00 21:47 10:02
Minimum _ 22,1 °C -9,6 °C 39 % 54 % 996,7 hPa - 0,0 km/h (0 Bft) - - - -11,2 °C -13,5 °C 0,0 km/h (0 Bft)
Max-Datum _ 22.01.26 21.01.26 25.01.26 25.01.26 19.01.26 25.01.26 23.01.26 - 21.01.26 22.01.26 19.01.26 21.01.26 23.01.26
_ Max-Zeit 12:27 14:43 21:01 23:01 00:00 23:01 14:55 - 12:09 12:21 10:59 14:43 15:31
Maximum _ 23,4 °C 6,1 °C 52 % 92 % 1024,2 hPa 0,0 l/m² 23,4 km/h
O (4 Bft)
- 0,15 h 355 W/m² -1,2 °C 6,1 °C 30,6 km/h
O (5 Bft)
Durchschnitt _ 22,6 °C -2,4 °C 45 % 82 % 1009,5 hPa #0,0 l/m² 3,7 km/h (1 Bft) O-NO #38:55 h 53 W/m² -5,2 °C -3,2 °C 5,8 km/h (2 Bft)
© 2009 Mathias Hoßbach